Latest Coastal Weather Observations for Lockhart River

IDQ60701

Issued at 6:12 pm EST Saturday 20 April 2024 (issued every 10 minutes, with the page automatically refreshed every 10 minutes)

About coastal observations | Map of coastal stations | Coastal observations for QLD | Marine services | Other Formats
Station Details ID: 028008 Name: LOCKHART RIVER AIRPORT Lat: -12.79 Lon: 143.30 Height: 18.5 m
Data from the previous 72 hours. | See also: Recent months at Lockhart River
Date/Time
EST
Wind Sea
Height
m
Swell Vis
km
Cloud Weather Temp
°C
Press
MSL
hPa
Rain since
9am
mm
Dir  Spd
kts
Gust
kts
Height
m
Period
s
Dir
20/06:00pm S 6 8 - - - - 10 Cloudy - 25.1 1010.1 31.4
20/05:59pm S 6 8 - - - - 10 Partly cloudy - 25.1 1010.1 31.4
20/05:41pm SSW 6 9 - - - - 10 Partly cloudy - 25.0 1010.0 31.4
20/05:30pm S 6 9 - - - - 10 Partly cloudy - 25.0 1009.8 31.4
20/05:13pm SSW 2 4 - - - - 10 Partly cloudy - 24.7 1009.5 31.4
20/05:06pm SSW 4 5 - - - - 9 Partly cloudy - 24.8 1009.6 31.4
20/05:00pm S 3 5 - - - - 5 Partly cloudy - 24.8 1009.6 31.2
20/04:55pm SSE 1 5 - - - - 5 Partly cloudy - 24.8 1009.5 31.0
20/04:47pm SSE 3 5 - - - - 10 Cloudy - 24.7 1009.5 31.0
20/04:35pm SSE 5 8 - - - - 5 Partly cloudy - 24.7 1009.4 30.8
20/04:30pm SE 7 10 - - - - 9 Partly cloudy - 24.6 1009.3 30.8
20/04:29pm SE 8 13 - - - - 10 Partly cloudy - 24.5 1009.3 30.8
20/04:15pm ESE 7 12 - - - - 8 Partly cloudy - 25.1 1009.3 30.8
20/04:13pm ESE 7 11 - - - - 9 Partly cloudy - 25.2 1009.2 30.8
20/04:00pm E 8 13 - - - - 5 Partly cloudy - 24.9 1008.8 30.8
20/03:54pm E 9 13 - - - - 6 Partly cloudy - 25.1 1008.7 30.6
20/03:30pm E 11 17 - - - - 2 Partly cloudy - 26.1 1008.3 30.2
20/03:00pm E 8 15 - - - - 2 Cloudy - 26.2 1008.2 29.2
20/02:32pm E 6 9 - - - - 5 Partly cloudy - 27.2 1008.1 17.0
20/02:30pm E 6 9 - - - - 8 Partly cloudy - 27.2 1008.2 16.6
20/02:12pm E 7 12 - - - - 10 Partly cloudy - 27.3 1008.2 16.2
20/02:02pm E 8 16 - - - - 10 Partly cloudy - 27.1 1008.4 16.2
20/02:00pm E 8 16 - - - - 10 Partly cloudy - 27.1 1008.4 16.2
20/01:47pm ESE 10 17 - - - - 3 Partly cloudy - 27.1 1008.6 16.0
20/01:42pm ESE 11 17 - - - - 5 Partly cloudy - 27.3 1008.7 16.0
20/01:36pm ESE 10 16 - - - - 10 Partly cloudy - 27.0 1008.8 15.6
20/01:30pm SE 7 13 - - - - 10 Partly cloudy - 26.7 1008.9 15.6
20/01:00pm ESE 10 18 - - - - 1 Partly cloudy - 27.5 1009.4 6.0
20/12:55pm ESE 13 18 - - - - 4 Partly cloudy - 28.0 1009.4 2.4
20/12:30pm SE 12 16 - - - - 10 Partly cloudy - 28.4 1009.6 0.6
20/12:19pm SE 11 16 - - - - 10 Partly cloudy - 27.8 1009.8 0.6
20/12:14pm ESE 9 15 - - - - 10 Partly cloudy - 27.7 1009.9 0.6
20/12:00pm ESE 9 14 - - - - 3 Cloudy - 28.0 1010.0 0.6
20/11:52am ESE 11 16 - - - - 5 Partly cloudy - 27.6 1010.1 0.6
20/11:30am ESE 11 17 - - - - 10 Partly cloudy - 28.3 1010.4 0.4
20/11:25am ESE 12 17 - - - - 10 Partly cloudy - 27.9 1010.5 0.4
20/11:14am ESE 9 14 - - - - 10 Partly cloudy - 28.0 1010.6 0.4
20/11:12am ESE 9 13 - - - - 10 Partly cloudy - 28.4 1010.7 0.4
20/11:05am ESE 9 13 - - - - 6 Partly cloudy - 28.2 1010.8 0.4
20/11:00am ESE 10 15 - - - - 4 Partly cloudy - 27.7 1010.9 0.4
20/10:50am E 11 17 - - - - 5 Partly cloudy - 27.4 1011.0 0.2
20/10:30am ESE 12 16 - - - - 10 Partly cloudy - 29.6 1011.1 0.0
20/10:16am SE 11 15 - - - - 10 Partly cloudy - 29.2 1011.1 0.0
20/10:00am ESE 11 16 - - - - 10 Partly cloudy - 28.9 1011.1 0.0
20/09:30am ESE 12 19 - - - - 10 Partly cloudy - 28.1 1011.2 0.0
20/09:11am SE 8 11 - - - - 10 Partly cloudy - 27.8 1011.3 0.0
20/09:00am SE 7 11 - - - - 10 Cloudy - 27.4 1011.3 1.8
20/08:48am SE 8 10 - - - - 10 Partly cloudy - 27.0 1011.2 1.8
20/08:33am ESE 9 13 - - - - 10 Partly cloudy - 27.0 1011.0 1.8
20/08:30am ESE 9 13 - - - - 10 Partly cloudy - 27.2 1010.9 1.8
20/08:15am SE 9 13 - - - - 5 Partly cloudy - 27.0 1010.6 1.8
20/08:00am SE 8 11 - - - - 10 Partly cloudy - 27.1 1010.4 1.6
20/07:30am SE 7 10 - - - - 10 Partly cloudy - 26.7 1010.0 1.6
20/07:22am SSE 5 7 - - - - 10 Partly cloudy - 26.6 1009.9 1.6
20/07:00am SE 6 7 - - - - 10 Partly cloudy - 26.5 1009.5 1.6
20/06:52am SE 6 10 - - - - 10 Partly cloudy - 26.5 1009.4 1.6
20/06:30am SE 8 10 - - - - 10 Cloudy - 26.6 1009.2 1.6
20/06:07am SE 6 9 - - - - 10 Partly cloudy - 26.5 1009.1 1.6
20/06:05am SE 6 9 - - - - 10 Partly cloudy - 26.5 1009.1 1.6
20/06:00am SE 6 9 - - - - 10 Cloudy - 26.5 1009.0 1.6
20/05:30am SE 4 6 - - - - 10 Partly cloudy - 26.4 1008.8 1.6
20/05:28am SE 5 6 - - - - 10 Partly cloudy - 26.4 1008.8 1.6
20/05:00am SSE 5 7 - - - - 10 Partly cloudy - 26.3 1008.5 1.6
20/04:30am SE 6 9 - - - - 10 Partly cloudy - 26.3 1008.3 1.6
20/04:00am SSE 8 10 - - - - 10 Cloudy - 26.3 1008.4 1.6
20/03:30am SSE 6 10 - - - - 10 Cloudy - 26.3 1008.3 1.6
20/03:00am SE 7 8 - - - - 10 Cloudy - 26.4 1008.3 1.6
20/02:30am SE 6 8 - - - - 10 Partly cloudy - 26.3 1008.7 1.6
20/02:00am SE 7 11 - - - - 10 Partly cloudy - 26.4 1008.8 1.6
20/01:30am SSE 7 9 - - - - 10 Partly cloudy - 26.3 1009.0 1.6
20/01:00am SE 9 13 - - - - 10 Partly cloudy - 26.5 1009.4 1.6
20/12:30am SE 7 10 - - - - 10 Partly cloudy - 26.6 1009.8 1.6
20/12:00am SE 7 9 - - - - 10 Cloudy - 26.6 1010.2 1.6
 
Date/Time
EST
Wind Sea
Height
m
Swell Vis
km
Cloud Weather Temp
°C
Press
MSL
hPa
Rain since
9am
mm
Dir  Spd
kts
Gust
kts
Height
m
Period
s
Dir
19/11:39pm SSE 8 11 - - - - 6 Partly cloudy - 26.4 1010.3 1.6
19/11:30pm SSE 5 7 - - - - 6 Partly cloudy - 26.6 1010.3 1.2
19/11:20pm SSE 5 8 - - - - 5 Partly cloudy - 26.6 1010.4 1.0
19/11:00pm ESE 4 6 - - - - 10 Partly cloudy - 26.7 1010.6 0.6
19/10:50pm SE 5 6 - - - - 10 Partly cloudy - 26.6 1010.7 0.6
19/10:36pm SSE 4 6 - - - - 5 Partly cloudy - 26.6 1010.8 0.4
19/10:30pm SSE 4 6 - - - - 10 Partly cloudy - 26.6 1010.9 0.4
19/10:00pm CALM 0 0 - - - - 10 Partly cloudy - 26.5 1010.8 0.0
19/09:30pm SSE 3 5 - - - - 10 Partly cloudy - 26.4 1010.7 0.0
19/09:00pm CALM 0 0 - - - - 10 Cloudy - 26.3 1010.4 0.0
19/08:32pm CALM 0 0 - - - - 10 Partly cloudy - 26.3 1010.2 0.0
19/08:30pm CALM 0 0 - - - - 10 Partly cloudy - 26.3 1010.2 0.0
19/08:00pm CALM 0 0 - - - - 10 Partly cloudy - 26.4 1009.7 0.0
19/07:30pm SSE 3 4 - - - - 10 Partly cloudy - 27.1 1009.1 0.0
19/07:00pm ESE 4 5 - - - - 10 Cloudy - 27.5 1008.5 0.0
19/06:30pm SE 5 7 - - - - 10 Cloudy - 27.7 1008.3 0.0
19/06:00pm ESE 7 9 - - - - 10 Cloudy - 28.0 1008.3 0.0
19/05:30pm ESE 6 9 - - - - 10 Partly cloudy - 28.2 1007.9 0.0
19/05:00pm ESE 6 9 - - - - 10 Cloudy - 28.6 1007.4 0.0
19/04:30pm E 6 9 - - - - 10 Cloudy - 28.6 1007.0 0.0
19/04:00pm ESE 8 11 - - - - 10 Partly cloudy - 29.3 1006.8 0.0
19/03:30pm SE 9 12 - - - - 10 Partly cloudy - 29.8 1006.7 0.0
19/03:00pm ESE 9 13 - - - - 10 Cloudy - 30.2 1006.8 0.0
19/02:30pm ESE 9 12 - - - - 10 Partly cloudy - 30.9 1007.0 0.0
19/02:00pm ESE 8 14 - - - - 10 Partly cloudy - 30.4 1007.3 0.0
19/01:30pm SE 7 10 - - - - 10 Partly cloudy - 30.9 1007.6 0.0
19/01:00pm SE 8 11 - - - - 10 Partly cloudy - 30.9 1007.9 0.0
19/12:30pm ESE 6 10 - - - - 10 Partly cloudy - 30.9 1008.2 0.0
19/12:00pm E 5 8 - - - - 10 Partly cloudy - 30.3 1008.6 0.0
19/11:30am ESE 7 9 - - - - 10 Partly cloudy - 29.2 1009.1 0.0
19/11:00am ESE 7 9 - - - - 10 Partly cloudy - 29.6 1009.7 0.0
19/10:47am ESE 7 11 - - - - 10 Partly cloudy - 29.2 1009.8 0.0
19/10:30am ESE 7 9 - - - - 10 Partly cloudy - 29.1 1010.1 0.0
19/10:00am SE 8 11 - - - - 10 Partly cloudy - 28.9 1009.9 0.0
19/09:52am SE 8 11 - - - - 10 Partly cloudy - 28.8 1009.8 0.0
19/09:30am E 6 7 - - - - 10 Partly cloudy - 27.8 1009.7 0.0
19/09:00am CALM 0 0 - - - - 10 Cloudy - 26.6 1009.7 46.0
19/08:30am CALM 0 0 - - - - 10 Partly cloudy - 26.1 1009.6 46.0
19/08:00am CALM 0 0 - - - - 10 Partly cloudy - 25.5 1009.4 46.0
19/07:30am CALM 0 0 - - - - 10 Partly cloudy - 24.9 1009.3 46.0
19/07:00am CALM 0 0 - - - - 10 Partly cloudy - 24.8 1008.9 46.0
19/06:30am CALM 0 0 - - - - 10 Partly cloudy - 24.6 1008.5 46.0
19/06:00am CALM 0 0 - - - - 10 Cloudy - 24.6 1008.2 46.0
19/05:30am CALM 0 0 - - - - 10 Partly cloudy - 24.6 1007.7 46.0
19/05:00am ESE 1 4 - - - - 10 Partly cloudy - 24.5 1007.4 46.0
19/04:38am SE 4 6 - - - - 10 Partly cloudy - 24.5 1007.3 46.0
19/04:37am SE 5 6 - - - - 10 Partly cloudy - 24.6 1007.3 46.0
19/04:30am SE 6 7 - - - - 10 Partly cloudy - 24.8 1007.4 46.0
19/04:00am E 8 12 - - - - 5 Partly cloudy - 24.7 1007.3 45.6
19/03:33am ENE 6 10 - - - - 5 Partly cloudy - 24.8 1007.4 44.4
19/03:30am E 5 10 - - - - 6 Partly cloudy - 24.9 1007.3 44.4
19/03:26am ESE 5 7 - - - - 10 Partly cloudy - 25.0 1007.3 44.2
19/03:00am SE 8 11 - - - - 2 Cloudy - 25.0 1007.1 44.0
19/02:30am ESE 6 8 - - - - 2 Partly cloudy - 25.3 1007.2 42.8
19/02:00am E 5 8 - - - - 5 Partly cloudy - 25.3 1007.6 41.6
19/01:50am ESE 6 10 - - - - 5 Partly cloudy - 25.3 1007.7 41.6
19/01:30am ESE 6 9 - - - - 10 Partly cloudy - 25.2 1007.9 41.6
19/01:13am E 6 9 - - - - 10 Partly cloudy - 25.3 1008.1 41.6
19/01:00am ESE 6 11 - - - - 4 Partly cloudy - 25.2 1008.1 41.6
19/12:40am ESE 5 9 - - - - 5 Partly cloudy - 25.4 1008.4 40.8
19/12:31am ESE 6 11 - - - - 10 Partly cloudy - 25.4 1008.5 40.8
19/12:30am ESE 7 11 - - - - 10 Partly cloudy - 25.4 1008.5 40.8
19/12:00am SE 8 11 - - - - 5 Cloudy - 25.7 1008.9 40.4
 
Date/Time
EST
Wind Sea
Height
m
Swell Vis
km
Cloud Weather Temp
°C
Press
MSL
hPa
Rain since
9am
mm
Dir  Spd
kts
Gust
kts
Height
m
Period
s
Dir
18/11:30pm ESE 10 14 - - - - 5 Partly cloudy - 25.4 1009.2 40.0
18/11:04pm SE 11 18 - - - - 5 Partly cloudy - 25.4 1009.2 39.6
18/11:00pm ESE 11 16 - - - - 10 Partly cloudy - 25.5 1009.1 39.4
18/10:54pm SE 11 16 - - - - 6 Partly cloudy - 25.4 1009.1 39.4
18/10:30pm SE 9 13 - - - - 5 Cloudy - 25.4 1008.7 39.4
18/10:00pm SE 7 13 - - - - 10 Cloudy - 25.3 1008.5 39.2
18/09:30pm SE 7 9 - - - - 10 Cloudy - 24.9 1008.6 39.2
18/09:00pm SE 5 11 - - - - 10 Cloudy - 24.8 1008.8 39.2
18/08:30pm SSE 7 9 - - - - 10 Partly cloudy - 24.7 1008.6 39.2
18/08:00pm SE 6 9 - - - - 10 Partly cloudy - 24.6 1008.6 39.2
18/07:30pm SSE 7 10 - - - - 10 Cloudy - 24.4 1008.6 38.8
18/07:00pm SSE 7 9 - - - - 10 Cloudy - 24.5 1008.3 38.6
18/06:30pm SSE 7 9 - - - - 10 Partly cloudy - 24.4 1008.6 38.6
18/06:00pm SSE 8 11 - - - - 10 Mostly cloudy - 24.4 1008.5 38.0
18/05:30pm SSE 4 7 - - - - 9 Partly cloudy - 24.7 1008.3 36.4
18/05:28pm SSE 4 7 - - - - 9 Partly cloudy - 24.6 1008.3 36.2
18/05:18pm SSW 1 4 - - - - 5 Partly cloudy - 24.7 1008.4 35.6
18/05:07pm SW 3 4 - - - - 8 Partly cloudy - 24.6 1008.4 35.0
18/05:04pm SW 3 4 - - - - 7 Partly cloudy - 24.6 1008.4 34.8
18/05:00pm SW 3 4 - - - - 7 Partly cloudy - 24.7 1008.4 34.4
18/04:57pm SW 3 5 - - - - 8 Partly cloudy - 24.6 1008.3 34.2
18/04:30pm S 4 5 - - - - 4 Partly cloudy - 24.9 1008.5 31.6
18/04:00pm SE 8 13 - - - - 3 Partly cloudy - 24.9 1008.7 25.0
18/03:30pm SE 9 11 - - - - 2 Partly cloudy - 24.8 1008.3 19.2
18/03:18pm ESE 11 18 - - - - 5 Partly cloudy - 24.9 1008.3 13.6
18/03:07pm ESE 8 13 - - - - 6 Partly cloudy - 25.2 1008.1 12.0
18/03:00pm ESE 8 14 - - - - 6 Cloudy - 25.2 1008.1 11.6
18/02:38pm ESE 12 18 - - - - 5 Partly cloudy - 25.6 1007.9 6.4
18/02:30pm SE 9 12 - - - - 10 Partly cloudy - 26.7 1007.7 5.2
18/02:29pm SE 9 12 - - - - 10 Partly cloudy - 26.8 1007.8 5.2
18/02:10pm SE 9 11 - - - - 5 Partly cloudy - 26.4 1008.1 5.0
18/02:00pm SE 11 17 - - - - 10 Partly cloudy - 26.4 1008.2 4.2
18/01:40pm SE 13 24 - - - - 3 Partly cloudy - 26.6 1008.4 3.8
18/01:39pm SE 13 24 - - - - 3 Partly cloudy - 26.7 1008.4 3.4
18/01:38pm SE 13 24 - - - - 4 Partly cloudy - 26.9 1008.4 3.0
18/01:30pm ESE 10 15 - - - - 10 Partly cloudy - 28.4 1008.2 1.4
18/01:00pm SE 13 21 - - - - 10 Partly cloudy - 29.1 1008.5 1.4
18/12:30pm SE 16 22 - - - - 10 Partly cloudy - 28.9 1009.1 1.4
18/12:00pm SE 15 21 - - - - 10 Cloudy - 28.5 1009.8 1.4
18/11:30am SE 15 20 - - - - 10 Partly cloudy - 27.7 1010.1 1.4
18/11:01am SE 12 17 - - - - 10 Partly cloudy - 28.0 1010.2 1.4
18/11:00am SE 12 17 - - - - 10 Partly cloudy - 28.1 1010.2 1.4
18/10:42am SE 11 16 - - - - 10 Partly cloudy - 27.8 1010.5 1.4
18/10:30am SE 13 18 - - - - 10 Partly cloudy - 27.4 1010.6 1.4
18/10:27am SE 15 21 - - - - 10 Partly cloudy - 27.3 1010.6 1.4
18/10:23am SE 15 21 - - - - 10 Partly cloudy - 27.1 1010.6 1.4
18/10:06am ESE 13 18 - - - - 5 Partly cloudy - 27.1 1010.6 1.4
18/10:00am SE 11 17 - - - - 9 Cloudy - 27.3 1010.4 0.6
18/09:30am SE 11 15 - - - - 10 Partly cloudy - 27.5 1010.4 0.0
18/09:18am SE 10 13 - - - - 10 Partly cloudy - 27.3 1010.3 0.0
18/09:15am SE 10 13 - - - - 10 Partly cloudy - 27.2 1010.3 0.0
18/09:00am SE 13 18 - - - - 2 Cloudy - 27.2 1010.4 11.0
18/08:52am SE 11 17 - - - - 5 Partly cloudy - 27.9 1010.2 10.6
18/08:30am SE 13 19 - - - - 10 Partly cloudy - 27.8 1010.0 10.6
18/08:00am SE 11 15 - - - - 10 Partly cloudy - 27.4 1009.6 10.6
18/07:30am SE 8 12 - - - - 10 Partly cloudy - 26.6 1009.3 10.6
18/07:00am SE 12 16 - - - - 10 Partly cloudy - 26.9 1008.9 10.4
18/06:30am SE 9 13 - - - - 10 Partly cloudy - 26.5 1008.6 10.4
18/06:00am SE 9 11 - - - - 10 Cloudy - 26.2 1008.1 10.4
18/05:30am SE 11 15 - - - - 10 Partly cloudy - 25.9 1007.7 10.4
18/05:19am SE 13 19 - - - - 10 Partly cloudy - 25.9 1007.6 10.4
18/05:08am SE 10 17 - - - - 8 Partly cloudy - 25.9 1007.8 10.4
18/05:00am SSE 8 11 - - - - 10 Partly cloudy - 25.8 1007.6 10.4
18/04:53am SSE 9 11 - - - - 10 Partly cloudy - 25.7 1007.6 10.4
18/04:36am SE 13 20 - - - - 10 Partly cloudy - 25.6 1007.7 10.4
18/04:30am SE 11 20 - - - - 10 Partly cloudy - 25.7 1007.8 10.4
18/04:11am SE 12 17 - - - - 7 Partly cloudy - 25.9 1007.6 8.2
18/04:04am SE 13 19 - - - - 5 Partly cloudy - 25.9 1007.6 8.0
18/04:01am SE 12 19 - - - - 5 Partly cloudy - 26.0 1007.7 8.0
18/04:00am SE 12 19 - - - - 6 Partly cloudy - 26.1 1007.6 8.0
18/03:54am SE 11 16 - - - - 6 Partly cloudy - 26.3 1007.5 7.6
18/03:30am SE 11 15 - - - - 10 Partly cloudy - 26.6 1007.6 7.4
18/03:00am SE 13 18 - - - - 10 Cloudy - 26.9 1008.0 7.4
18/02:30am SE 12 18 - - - - 10 Partly cloudy - 27.2 1008.2 7.4
18/02:00am SE 13 19 - - - - 10 Partly cloudy - 27.0 1008.4 7.4
18/01:30am SSE 13 18 - - - - 10 Partly cloudy - 26.8 1008.6 7.4
18/01:00am SE 11 15 - - - - 10 Partly cloudy - 26.7 1009.1 7.4
18/12:30am SE 11 14 - - - - 10 Partly cloudy - 26.4 1009.8 7.4
18/12:00am SE 8 13 - - - - 10 Cloudy - 25.7 1010.2 7.4
 
Date/Time
EST
Wind Sea
Height
m
Swell Vis
km
Cloud Weather Temp
°C
Press
MSL
hPa
Rain since
9am
mm
Dir  Spd
kts
Gust
kts
Height
m
Period
s
Dir
17/11:49pm ESE 8 13 - - - - 10 Partly cloudy - 25.6 1010.3 7.4
17/11:47pm ESE 8 13 - - - - 10 Partly cloudy - 25.6 1010.3 7.4
17/11:31pm ESE 11 15 - - - - 3 Partly cloudy - 25.7 1010.6 7.4
17/11:30pm ESE 11 15 - - - - 3 Partly cloudy - 25.8 1010.6 7.4
17/11:22pm SE 10 15 - - - - 5 Partly cloudy - 25.7 1010.5 6.8
17/11:00pm SSE 8 11 - - - - 10 Partly cloudy - 25.7 1010.6 6.6
17/10:30pm SE 11 18 - - - - 10 Partly cloudy - 25.6 1011.0 6.6
17/10:23pm SE 12 18 - - - - 10 Partly cloudy - 25.6 1011.1 6.6
17/10:09pm SE 12 17 - - - - 10 Partly cloudy - 25.6 1011.2 6.6
17/10:00pm SE 16 24 - - - - 6 Partly cloudy - 25.7 1011.2 6.6
17/09:38pm SE 11 17 - - - - 5 Partly cloudy - 25.6 1011.3 6.2
17/09:30pm SE 11 14 - - - - 10 Partly cloudy - 25.6 1011.2 5.4
17/09:15pm SE 13 20 - - - - 7 Partly cloudy - 25.6 1011.2 5.4
17/09:04pm SE 12 15 - - - - 4 Partly cloudy - 25.6 1011.2 5.2
17/09:00pm SE 13 19 - - - - 3 Cloudy - 25.7 1011.2 5.2
17/08:51pm SE 16 26 - - - - 4 Partly cloudy - 25.9 1011.1 4.0
17/08:43pm SE 18 26 - - - - 5 Partly cloudy - 26.3 1010.9 3.0
17/08:30pm SE 13 21 - - - - 10 Partly cloudy - 27.0 1010.5 2.6
17/08:00pm SSE 10 16 - - - - 10 Partly cloudy - 27.1 1010.3 2.6
17/07:50pm SE 11 15 - - - - 10 Partly cloudy - 27.1 1010.1 2.6
17/07:30pm SE 12 17 - - - - 10 Partly cloudy - 26.9 1009.9 2.6
17/07:23pm SE 12 20 - - - - 10 Partly cloudy - 26.8 1009.9 2.6
17/07:22pm SE 12 20 - - - - 10 Partly cloudy - 26.8 1009.9 2.6
17/07:00pm SE 14 24 - - - - 10 Partly cloudy - 26.7 1009.7 2.6
17/06:37pm SE 12 16 - - - - 10 Partly cloudy - 26.7 1009.5 2.6
17/06:30pm SE 11 16 - - - - 6 Partly cloudy - 26.7 1009.5 2.6
17/06:24pm SE 12 20 - - - - 5 Partly cloudy - 26.7 1009.4 2.4
17/06:17pm SE 14 20 - - - - 7 Partly cloudy - 26.8 1009.3 2.0

Other formats

Comma delimited format used in spreadsheet applications
http://www.bom.gov.au/fwo/IDQ60701/IDQ60701.94186.axf

JavaScript Object Notation format (JSON) in row-major order
http://www.bom.gov.au/fwo/IDQ60701/IDQ60701.94186.json

Data quality

Most of these data are generated automatically and are frequently updated. Quality checks on data are not normally performed. It is possible for incorrect values to appear. Refer to information at About Latest Weather Observations and please check the disclaimer before using these data.